Terminal Aerodrome Forecast
Issued by NWS Tuscon, AZ

Home | Current Version | Previous Version | Text Only | Print | Product List | Glossary On
Versions: 1 2 3 4 5 6 7 8 9 10 11 12 13 14 15 16 17 18 19
000
FTUS45 KTWC 032337
TAFDUG
TAF
KDUG 032337Z 0400/0424 30009KT P6SM VCTS SCT080CB BKN300
      TEMPO 0401/0403 VRB20G35KT P6SM TSRA BKN080CB BKN300
     FM040300 06007KT P6SM VCSH SCT070 BKN120
     FM041200 09005KT P6SM SCT070 BKN180
     FM041900 29008KT P6SM SCT080 SCT150=

USA.gov is the U.S. government's official web portal to all federal, state and local government web resources and services.